createdAt,value
2022-11-15T00:00:07.771Z,64.25
2022-11-15T00:01:44.082Z,61.47
2022-11-15T00:03:27.398Z,59.55
2022-11-15T00:05:08.596Z,56.45
2022-11-15T00:06:49.637Z,59.70
2022-11-15T00:08:29.492Z,56.58
2022-11-15T00:10:07.760Z,61.08
2022-11-15T00:11:45.044Z,61.85
2022-11-15T00:13:21.390Z,62.17
2022-11-15T00:14:57.258Z,57.90
2022-11-15T00:16:33.252Z,62.20
2022-11-15T00:18:15.073Z,58.85
2022-11-15T00:19:50.442Z,59.90
2022-11-15T00:21:30.890Z,57.67
2022-11-15T00:23:07.262Z,60.47
2022-11-15T00:24:43.657Z,58.92
2022-11-15T00:26:19.025Z,55.33
2022-11-15T00:27:58.523Z,60.63
2022-11-15T00:29:34.379Z,60.33
2022-11-15T00:31:15.673Z,63.75
2022-11-15T00:32:51.573Z,59.00
2022-11-15T00:34:26.954Z,59.75
2022-11-15T00:36:04.193Z,57.63
2022-11-15T00:37:39.737Z,57.53
2022-11-15T00:39:15.454Z,60.17
2022-11-15T00:40:51.781Z,61.33
2022-11-15T00:42:27.502Z,56.13
2022-11-15T00:44:04.951Z,59.97
2022-11-15T00:45:41.047Z,63.65
2022-11-15T00:47:16.462Z,58.88
2022-11-15T00:48:51.900Z,63.20
2022-11-15T00:50:27.829Z,64.18
2022-11-15T00:52:04.434Z,60.03
2022-11-15T00:53:40.332Z,60.20
2022-11-15T00:55:18.366Z,64.82
2022-11-15T00:56:54.348Z,63.22
2022-11-15T00:58:30.294Z,59.95
2022-11-15T01:00:09.251Z,64.82
2022-11-15T01:01:45.887Z,61.15
2022-11-15T01:03:26.701Z,62.58
2022-11-15T01:05:08.768Z,59.95
2022-11-15T01:06:49.301Z,61.88
2022-11-15T01:08:25.595Z,59.65
2022-11-15T01:10:01.128Z,62.10
2022-11-15T01:11:36.983Z,63.22
2022-11-15T01:13:12.626Z,63.80
2022-11-15T01:14:48.547Z,59.40
2022-11-15T01:16:25.138Z,62.42
2022-11-15T01:18:01.299Z,62.35
2022-11-15T01:19:37.444Z,65.68
2022-11-15T01:21:20.705Z,66.63
2022-11-15T01:22:56.546Z,64.35
2022-11-15T01:24:32.676Z,63.10
2022-11-15T01:26:13.739Z,64.22
2022-11-15T01:29:10.482Z,63.88
2022-11-15T01:30:48.736Z,62.03
2022-11-15T01:32:25.894Z,65.78
2022-11-15T01:34:03.525Z,61.97
2022-11-15T01:35:40.696Z,61.17
2022-11-15T01:37:15.337Z,66.10
2022-11-15T01:38:55.077Z,65.25
2022-11-15T01:40:31.102Z,67.43
2022-11-15T01:42:07.097Z,66.15
2022-11-15T01:43:42.635Z,65.95
2022-11-15T01:45:18.952Z,66.00
2022-11-15T01:46:54.381Z,67.85
2022-11-15T01:48:34.796Z,62.88
2022-11-15T01:50:15.576Z,64.95
2022-11-15T01:51:53.099Z,65.10
2022-11-15T01:53:33.096Z,64.00
2022-11-15T01:55:14.250Z,67.05
2022-11-15T01:56:56.985Z,64.22
2022-11-15T01:58:33.716Z,64.25
2022-11-15T02:00:11.551Z,65.95
2022-11-15T02:01:47.818Z,69.50
2022-11-15T02:03:39.396Z,66.72
2022-11-15T02:05:20.387Z,68.63
2022-11-15T02:07:03.083Z,65.80
2022-11-15T02:08:39.070Z,63.28
2022-11-15T02:10:20.093Z,64.63
2022-11-15T02:11:56.835Z,68.22
2022-11-15T02:13:33.100Z,67.97
2022-11-15T02:15:11.505Z,68.97
2022-11-15T02:16:59.461Z,65.57
2022-11-15T02:18:42.356Z,68.60
2022-11-15T02:20:43.561Z,65.43
2022-11-15T02:22:37.965Z,67.90
2022-11-15T02:25:01.522Z,71.20
2022-11-15T02:27:32.711Z,64.13
2022-11-15T02:29:11.338Z,66.32
2022-11-15T02:30:54.882Z,69.43
2022-11-15T02:32:45.005Z,70.30
2022-11-15T02:34:31.974Z,62.75
2022-11-15T02:36:15.841Z,67.90
2022-11-15T02:37:58.174Z,69.05
2022-11-15T02:39:42.882Z,63.70
2022-11-15T02:41:29.075Z,61.17
2022-11-15T02:43:10.001Z,66.88
2022-11-15T02:44:48.061Z,62.15
2022-11-15T02:46:34.468Z,62.45
2022-11-15T02:48:13.061Z,63.85
2022-11-15T02:49:53.086Z,63.38
2022-11-15T02:51:34.401Z,63.78
2022-11-15T02:53:11.057Z,67.15
2022-11-15T02:54:54.756Z,68.10
2022-11-15T02:56:30.770Z,66.03
2022-11-15T02:58:54.943Z,73.75
2022-11-15T03:00:38.057Z,64.10
2022-11-15T03:02:33.003Z,64.13
2022-11-15T03:04:35.389Z,64.97
2022-11-15T03:06:31.404Z,60.85
2022-11-15T03:08:19.381Z,62.53
2022-11-15T03:10:11.008Z,60.38
2022-11-15T03:12:01.280Z,60.75
2022-11-15T03:13:49.975Z,57.80
2022-11-15T03:15:30.080Z,60.33
2022-11-15T03:17:16.871Z,63.33
2022-11-15T03:19:00.268Z,56.22
2022-11-15T03:20:37.364Z,55.33
2022-11-15T03:22:20.162Z,55.90
2022-11-15T03:25:25.147Z,56.05
2022-11-15T03:27:03.223Z,54.88
2022-11-15T03:28:48.382Z,52.25
2022-11-15T03:30:24.408Z,49.45
2022-11-15T03:32:06.392Z,52.13
2022-11-15T03:33:44.600Z,51.67
2022-11-15T03:35:25.190Z,48.55
2022-11-15T03:37:02.233Z,51.17
2022-11-15T03:38:40.307Z,47.33
2022-11-15T03:40:18.206Z,46.88
2022-11-15T03:42:09.542Z,45.42
2022-11-15T03:43:54.964Z,50.20
2022-11-15T03:45:37.593Z,44.92
2022-11-15T03:47:21.029Z,46.05
2022-11-15T03:49:08.991Z,44.67
2022-11-15T03:50:47.935Z,44.90
2022-11-15T03:52:25.727Z,45.83
2022-11-15T03:54:04.582Z,42.92
2022-11-15T03:55:41.348Z,45.60
2022-11-15T03:57:18.292Z,43.63
2022-11-15T03:58:54.885Z,42.13
2022-11-15T04:00:31.859Z,39.67
2022-11-15T04:02:07.896Z,42.67
2022-11-15T04:03:48.944Z,41.17
2022-11-15T04:05:29.682Z,40.47
2022-11-15T04:07:12.007Z,39.95
2022-11-15T04:08:48.029Z,38.47
2022-11-15T04:10:24.281Z,36.85
2022-11-15T04:12:00.679Z,36.67
2022-11-15T04:13:37.073Z,34.47
2022-11-15T04:15:15.913Z,33.60
2022-11-15T04:16:51.776Z,33.35
2022-11-15T04:18:30.452Z,33.85
2022-11-15T04:20:10.620Z,34.17
2022-11-15T04:21:46.380Z,32.40
2022-11-15T04:23:25.113Z,32.45
2022-11-15T04:25:01.235Z,32.13
2022-11-15T04:26:37.229Z,31.92
2022-11-15T04:28:13.380Z,28.52
2022-11-15T04:29:49.612Z,29.45
2022-11-15T04:31:30.643Z,29.60
2022-11-15T04:33:06.255Z,29.33
2022-11-15T04:34:42.076Z,29.02
2022-11-15T04:36:19.026Z,28.75
2022-11-15T04:37:57.801Z,28.80
2022-11-15T04:39:35.524Z,28.30
2022-11-15T04:41:16.424Z,28.02
2022-11-15T04:42:52.505Z,27.67
2022-11-15T04:44:29.845Z,26.30
2022-11-15T04:46:06.189Z,29.60
2022-11-15T04:47:44.802Z,27.50
2022-11-15T04:49:20.765Z,27.83
2022-11-15T04:50:57.590Z,27.90
2022-11-15T04:52:35.037Z,27.48
2022-11-15T04:54:10.930Z,27.58
2022-11-15T04:55:49.425Z,27.40
2022-11-15T04:57:25.194Z,26.83
2022-11-15T04:59:00.876Z,27.10
2022-11-15T05:00:36.776Z,28.90
2022-11-15T05:02:12.494Z,26.85
2022-11-15T05:03:53.230Z,26.67
2022-11-15T05:05:33.754Z,26.40
2022-11-15T05:07:13.211Z,25.73
2022-11-15T05:08:49.094Z,25.98
2022-11-15T05:10:24.815Z,25.77
2022-11-15T05:12:01.931Z,26.85
2022-11-15T05:13:39.225Z,24.58
2022-11-15T05:15:15.639Z,24.02
2022-11-15T05:16:51.750Z,24.88
2022-11-15T05:18:29.739Z,25.17
2022-11-15T05:20:07.938Z,23.23
2022-11-15T05:21:44.836Z,24.25
2022-11-15T05:23:22.704Z,23.25
2022-11-15T05:24:58.932Z,22.52
2022-11-15T05:26:34.199Z,22.92
2022-11-15T05:28:11.948Z,22.92
2022-11-15T05:29:48.164Z,22.13
2022-11-15T05:31:29.126Z,22.63
2022-11-15T05:33:05.540Z,23.58
2022-11-15T05:34:41.930Z,22.30
2022-11-15T05:36:26.641Z,22.00
2022-11-15T05:38:02.583Z,21.15
2022-11-15T05:39:37.987Z,21.52
2022-11-15T05:41:25.512Z,20.05
2022-11-15T05:44:25.706Z,21.63
2022-11-15T05:46:02.000Z,20.70
2022-11-15T05:47:39.989Z,21.00
2022-11-15T05:49:20.829Z,21.42
2022-11-15T05:50:58.057Z,19.77
2022-11-15T05:52:37.662Z,18.05
2022-11-15T05:54:14.638Z,20.75
2022-11-15T05:55:51.490Z,17.60
2022-11-15T05:57:26.980Z,18.58
2022-11-15T05:59:03.925Z,17.27
2022-11-15T06:00:41.868Z,16.55
2022-11-15T06:02:18.087Z,16.70
2022-11-15T06:03:58.924Z,15.73
2022-11-15T06:05:39.916Z,16.35
2022-11-15T06:07:16.843Z,15.02
2022-11-15T06:08:52.798Z,14.77
2022-11-15T06:10:29.306Z,14.18
2022-11-15T06:12:05.952Z,13.93
2022-11-15T06:13:42.472Z,13.38
2022-11-15T06:15:18.727Z,12.30
2022-11-15T06:16:56.548Z,12.90
2022-11-15T06:18:34.285Z,13.63
2022-11-15T06:20:12.506Z,12.18
2022-11-15T06:21:51.186Z,12.98
2022-11-15T06:23:34.428Z,12.52
2022-11-15T06:25:13.318Z,11.73
2022-11-15T06:26:58.108Z,12.65
2022-11-15T06:28:36.797Z,11.63
2022-11-15T06:30:13.778Z,10.75
2022-11-15T06:31:58.338Z,11.55
2022-11-15T06:33:38.239Z,11.18
2022-11-15T06:35:14.887Z,11.93
2022-11-15T06:36:53.734Z,10.95
2022-11-15T06:38:30.265Z,11.57
2022-11-15T06:40:08.634Z,12.27
2022-11-15T06:41:55.635Z,10.88
2022-11-15T06:43:37.983Z,11.18
2022-11-15T06:45:13.923Z,11.05
2022-11-15T06:46:57.825Z,11.70
2022-11-15T06:48:35.938Z,10.50
2022-11-15T06:50:43.022Z,9.70
2022-11-15T06:52:25.539Z,9.95
2022-11-15T06:54:09.119Z,10.23
2022-11-15T06:55:55.691Z,10.43
2022-11-15T06:59:09.845Z,10.18
2022-11-15T07:00:57.870Z,10.15
2022-11-15T07:02:50.505Z,9.52
2022-11-15T07:04:24.627Z,9.60
2022-11-15T07:07:28.674Z,9.35
2022-11-15T07:09:05.431Z,9.68
2022-11-15T07:10:43.860Z,9.63
2022-11-15T07:12:23.728Z,9.23
2022-11-15T07:14:01.177Z,9.20
2022-11-15T07:15:37.806Z,8.57
2022-11-15T07:17:14.291Z,9.55
2022-11-15T07:18:50.525Z,9.45
2022-11-15T07:20:32.013Z,8.43
2022-11-15T07:22:08.213Z,8.23
2022-11-15T07:23:43.582Z,8.32
2022-11-15T07:25:19.777Z,7.97
2022-11-15T07:26:55.096Z,8.23
2022-11-15T07:28:35.085Z,7.53
2022-11-15T07:30:15.561Z,7.22
2022-11-15T07:31:51.846Z,7.00
2022-11-15T07:33:27.926Z,7.93
2022-11-15T07:35:04.002Z,7.28
2022-11-15T07:36:42.135Z,8.00
2022-11-15T07:38:18.081Z,7.63
2022-11-15T07:39:53.791Z,8.70
2022-11-15T07:41:34.376Z,8.27
2022-11-15T07:43:10.534Z,8.93
2022-11-15T07:44:45.981Z,8.27
2022-11-15T07:46:24.711Z,9.40
2022-11-15T07:48:00.196Z,9.02
2022-11-15T07:49:36.313Z,8.82
2022-11-15T07:51:17.936Z,9.27
2022-11-15T07:52:59.795Z,8.90
2022-11-15T07:54:35.727Z,9.27
2022-11-15T07:56:11.446Z,8.90
2022-11-15T07:57:47.165Z,9.70
2022-11-15T07:59:23.303Z,8.57
2022-11-15T08:00:58.873Z,8.45
2022-11-15T08:02:34.833Z,9.20
2022-11-15T08:04:16.023Z,8.23
2022-11-15T08:05:56.602Z,8.50
2022-11-15T08:07:32.440Z,8.35
2022-11-15T08:09:09.918Z,7.93
2022-11-15T08:10:46.126Z,8.60
2022-11-15T08:12:25.757Z,7.65
2022-11-15T08:14:02.849Z,7.30
2022-11-15T08:15:39.378Z,8.52
2022-11-15T08:17:18.202Z,9.57
2022-11-15T08:18:54.871Z,9.00
2022-11-15T08:20:31.484Z,9.10
2022-11-15T08:22:08.876Z,9.43
2022-11-15T08:23:44.554Z,9.80
2022-11-15T08:25:20.846Z,10.25
2022-11-15T08:27:00.798Z,12.35
2022-11-15T08:28:39.225Z,12.00
2022-11-15T08:30:15.426Z,11.55
2022-11-15T08:31:52.230Z,11.23
2022-11-15T08:33:28.819Z,10.65
2022-11-15T08:35:07.355Z,11.60
2022-11-15T08:36:46.099Z,10.85
2022-11-15T08:38:21.971Z,11.20
2022-11-15T08:39:57.514Z,10.98
2022-11-15T08:41:40.003Z,10.52
2022-11-15T08:43:20.186Z,11.88
2022-11-15T08:44:56.539Z,10.93
2022-11-15T08:46:34.348Z,11.43
2022-11-15T08:48:10.108Z,11.18
2022-11-15T08:49:46.517Z,10.50
2022-11-15T08:51:27.334Z,11.57
2022-11-15T08:53:07.866Z,11.93
2022-11-15T08:54:43.297Z,10.23
2022-11-15T08:56:19.742Z,10.30
2022-11-15T08:57:59.790Z,10.43
2022-11-15T08:59:36.250Z,9.07
2022-11-15T09:01:19.751Z,9.45
2022-11-15T09:02:56.784Z,9.48
2022-11-15T09:04:37.516Z,8.90
2022-11-15T09:06:18.064Z,8.48
2022-11-15T09:07:55.371Z,8.45
2022-11-15T09:09:33.061Z,8.50
2022-11-15T09:11:13.690Z,8.23
2022-11-15T09:12:49.930Z,8.32
2022-11-15T09:14:27.383Z,8.43
2022-11-15T09:16:04.619Z,8.50
2022-11-15T09:17:42.099Z,8.48
2022-11-15T09:19:19.561Z,9.05
2022-11-15T09:20:57.548Z,8.32
2022-11-15T09:22:36.137Z,9.40
2022-11-15T09:24:12.389Z,9.30
2022-11-15T09:25:48.802Z,7.80
2022-11-15T09:29:23.739Z,8.75
2022-11-15T09:31:07.157Z,8.23
2022-11-15T09:32:43.896Z,7.82
2022-11-15T09:34:22.295Z,8.77
2022-11-15T09:36:02.238Z,7.72
2022-11-15T09:37:40.772Z,8.75
2022-11-15T09:39:17.595Z,8.13
2022-11-15T09:41:32.645Z,8.30
2022-11-15T09:43:36.876Z,7.75
2022-11-15T09:45:23.085Z,8.02
2022-11-15T09:47:19.250Z,7.15
2022-11-15T09:48:58.392Z,7.20
2022-11-15T09:50:41.756Z,7.05
2022-11-15T09:52:22.422Z,7.38
2022-11-15T09:56:03.958Z,6.47
2022-11-15T09:57:47.961Z,6.28
2022-11-15T09:59:43.016Z,6.85
2022-11-15T10:01:42.202Z,5.82
2022-11-15T10:03:31.328Z,5.95
2022-11-15T10:05:16.905Z,5.40
2022-11-15T10:07:07.338Z,4.95
2022-11-15T10:08:56.079Z,4.90
2022-11-15T10:10:41.225Z,4.55
2022-11-15T10:12:20.680Z,5.60
2022-11-15T10:14:00.545Z,4.80
2022-11-15T10:15:36.699Z,4.68
2022-11-15T10:17:35.791Z,4.00
2022-11-15T10:19:24.573Z,4.72
2022-11-15T10:21:14.025Z,4.82
2022-11-15T10:22:53.501Z,4.65
2022-11-15T10:26:06.378Z,4.82
2022-11-15T10:27:44.148Z,5.72
2022-11-15T10:29:26.273Z,4.93
2022-11-15T10:31:23.919Z,5.38
2022-11-15T10:33:28.100Z,4.63
2022-11-15T10:35:22.978Z,4.55
2022-11-15T10:37:01.568Z,5.15
2022-11-15T10:38:59.658Z,4.60
2022-11-15T10:42:38.804Z,5.20
2022-11-15T10:44:29.389Z,5.07
2022-11-15T10:46:45.764Z,5.03
2022-11-15T10:48:24.650Z,4.68
2022-11-15T10:50:07.093Z,4.38
2022-11-15T10:51:48.430Z,4.70
2022-11-15T10:53:33.883Z,4.10
2022-11-15T10:55:28.665Z,4.65
2022-11-15T10:57:09.865Z,5.25
2022-11-15T10:58:54.171Z,4.90
2022-11-15T11:00:36.939Z,4.10
2022-11-15T11:02:32.741Z,4.53
2022-11-15T11:04:13.255Z,4.45
2022-11-15T11:06:06.583Z,4.28
2022-11-15T11:07:58.433Z,3.75
2022-11-15T11:09:37.956Z,4.97
2022-11-15T11:11:19.008Z,3.95
2022-11-15T11:12:56.353Z,3.85
2022-11-15T11:14:35.489Z,4.32
2022-11-15T11:16:45.630Z,3.60
2022-11-15T11:18:30.538Z,4.25
2022-11-15T11:20:17.822Z,5.63
2022-11-15T11:22:08.051Z,4.57
2022-11-15T11:23:52.981Z,3.65
2022-11-15T11:25:35.927Z,3.20
2022-11-15T11:27:28.171Z,3.78
2022-11-15T11:29:25.434Z,3.05
2022-11-15T11:31:21.093Z,3.28
2022-11-15T11:33:12.002Z,4.05
2022-11-15T11:35:02.447Z,2.75
2022-11-15T11:36:45.899Z,3.40
2022-11-15T11:38:54.943Z,2.85
2022-11-15T11:40:38.055Z,2.67
2022-11-15T11:42:30.536Z,2.75
2022-11-15T11:44:24.350Z,3.17
2022-11-15T11:46:28.633Z,3.08
2022-11-15T11:48:13.036Z,2.80
2022-11-15T11:49:53.209Z,3.78
2022-11-15T11:51:42.681Z,3.03
2022-11-15T11:53:30.020Z,2.17
2022-11-15T11:55:17.243Z,3.40
2022-11-15T11:56:55.588Z,2.45
2022-11-15T11:58:37.836Z,3.28
2022-11-15T12:00:20.090Z,2.85
2022-11-15T12:02:02.215Z,2.92
2022-11-15T12:03:47.562Z,2.75
2022-11-15T12:05:35.775Z,2.28
2022-11-15T12:07:24.012Z,3.10
2022-11-15T12:09:07.884Z,2.60
2022-11-15T12:10:51.639Z,2.40
2022-11-15T12:12:39.773Z,2.40
2022-11-15T12:14:34.843Z,2.38
2022-11-15T12:16:17.601Z,3.22
2022-11-15T12:17:55.952Z,2.47
2022-11-15T12:19:31.441Z,2.03
2022-11-15T12:21:27.037Z,2.13
2022-11-15T12:23:11.810Z,2.22
2022-11-15T12:24:57.432Z,2.08
2022-11-15T12:26:47.176Z,2.28
2022-11-15T12:28:34.950Z,2.10
2022-11-15T12:30:16.286Z,2.35
2022-11-15T12:31:56.653Z,2.30
2022-11-15T12:33:37.598Z,1.80
2022-11-15T12:35:28.647Z,2.75
2022-11-15T12:37:55.059Z,2.03
2022-11-15T12:40:17.280Z,1.88
2022-11-15T12:42:37.175Z,2.05
2022-11-15T12:44:53.318Z,2.17
2022-11-15T12:47:05.418Z,1.90
2022-11-15T12:48:58.527Z,2.30
2022-11-15T12:50:57.346Z,1.88
2022-11-15T12:52:33.935Z,1.75
2022-11-15T12:55:01.782Z,2.65
2022-11-15T12:56:36.815Z,2.03
2022-11-15T12:58:29.371Z,2.88
2022-11-15T13:00:44.407Z,2.33
2022-11-15T13:02:21.369Z,2.10
2022-11-15T13:04:22.974Z,2.00
2022-11-15T13:06:29.891Z,2.53
2022-11-15T13:08:09.594Z,2.80
2022-11-15T13:09:56.621Z,1.98
2022-11-15T13:11:58.894Z,1.85
2022-11-15T13:13:45.625Z,2.33
2022-11-15T13:15:54.198Z,2.75
2022-11-15T13:17:38.354Z,1.73
2022-11-15T13:19:15.391Z,2.38
2022-11-15T13:20:50.194Z,2.47
2022-11-15T13:22:26.209Z,2.15
2022-11-15T13:24:14.511Z,2.67
2022-11-15T13:26:17.161Z,3.00
2022-11-15T13:27:55.554Z,2.70
2022-11-15T13:29:33.588Z,2.72
2022-11-15T13:31:36.307Z,2.53
2022-11-15T13:33:21.037Z,2.55
2022-11-15T13:34:56.899Z,2.00
2022-11-15T13:36:33.894Z,2.08
2022-11-15T13:38:26.015Z,1.75
2022-11-15T13:40:34.987Z,1.70
2022-11-15T13:42:16.423Z,2.17
2022-11-15T13:43:54.317Z,2.00
2022-11-15T13:45:30.018Z,2.00
2022-11-15T13:47:07.655Z,2.00
2022-11-15T13:48:45.493Z,1.75
2022-11-15T13:50:25.083Z,2.25
2022-11-15T13:52:03.544Z,2.00
2022-11-15T13:53:43.441Z,1.65
2022-11-15T13:55:22.394Z,1.52
2022-11-15T13:57:02.538Z,2.10
2022-11-15T13:58:39.574Z,3.00
2022-11-15T14:00:35.180Z,1.50
2022-11-15T14:02:15.459Z,2.00
2022-11-15T14:03:59.967Z,2.00
2022-11-15T14:05:41.296Z,2.20
2022-11-15T14:07:20.041Z,1.67
2022-11-15T14:09:36.635Z,2.13
2022-11-15T14:11:19.601Z,1.58
2022-11-15T14:12:57.320Z,2.30
2022-11-15T14:14:31.929Z,1.90
2022-11-15T14:16:19.422Z,1.88
2022-11-15T14:17:54.447Z,2.00
2022-11-15T14:19:40.842Z,1.85
2022-11-15T14:21:21.924Z,2.25
2022-11-15T14:23:01.281Z,2.30
2022-11-15T14:24:36.416Z,1.85
2022-11-15T14:26:29.440Z,1.85
2022-11-15T14:28:29.627Z,2.50
2022-11-15T14:30:05.918Z,1.80
2022-11-15T14:31:43.980Z,2.50
2022-11-15T14:33:24.584Z,1.98
2022-11-15T14:35:15.783Z,1.75
2022-11-15T14:36:56.408Z,1.60
2022-11-15T14:38:37.039Z,2.33
2022-11-15T14:40:20.998Z,1.70
2022-11-15T14:42:02.003Z,2.53
2022-11-15T14:43:40.941Z,1.75
2022-11-15T14:45:22.779Z,1.80
2022-11-15T14:48:24.465Z,2.33
2022-11-15T14:50:01.482Z,2.22
2022-11-15T14:51:36.507Z,1.80
2022-11-15T14:53:15.614Z,1.70
2022-11-15T14:54:51.061Z,1.92
2022-11-15T14:56:26.268Z,2.15
2022-11-15T14:58:01.740Z,1.90
2022-11-15T14:59:38.353Z,1.80
2022-11-15T15:02:44.995Z,2.20
2022-11-15T15:04:25.770Z,1.75
2022-11-15T15:06:06.812Z,1.42
2022-11-15T15:07:43.187Z,1.63
2022-11-15T15:09:18.774Z,1.95
2022-11-15T15:10:54.490Z,1.90
2022-11-15T15:12:30.476Z,1.77
2022-11-15T15:14:06.518Z,1.63
2022-11-15T15:15:43.246Z,1.67
2022-11-15T15:17:20.198Z,1.83
2022-11-15T15:18:56.342Z,2.60
2022-11-15T15:20:32.528Z,2.08
2022-11-15T15:22:13.996Z,1.88
2022-11-15T15:23:51.288Z,1.70
2022-11-15T15:25:29.688Z,2.10
2022-11-15T15:27:06.372Z,2.10
2022-11-15T15:28:42.519Z,2.17
2022-11-15T15:30:18.369Z,1.63
2022-11-15T15:31:56.315Z,1.80
2022-11-15T15:33:32.622Z,1.60
2022-11-15T15:35:13.286Z,1.80
2022-11-15T15:36:50.066Z,1.83
2022-11-15T15:38:28.208Z,2.05
2022-11-15T15:40:12.397Z,1.85
2022-11-15T15:41:52.267Z,2.05
2022-11-15T15:43:30.199Z,2.35
2022-11-15T15:45:07.839Z,2.45
2022-11-15T15:46:45.099Z,2.65
2022-11-15T15:48:22.268Z,2.10
2022-11-15T15:49:58.703Z,2.22
2022-11-15T15:51:36.644Z,2.08
2022-11-15T15:53:14.461Z,1.90
2022-11-15T15:54:50.869Z,2.30
2022-11-15T15:56:27.537Z,2.15
2022-11-15T15:58:04.767Z,1.80
2022-11-15T15:59:41.251Z,2.05
2022-11-15T16:01:22.015Z,1.98
2022-11-15T16:02:58.873Z,1.85
2022-11-15T16:04:41.376Z,2.22
2022-11-15T16:06:38.255Z,2.40
2022-11-15T16:08:20.002Z,2.00
2022-11-15T16:09:56.289Z,2.28
2022-11-15T16:11:36.283Z,2.45
2022-11-15T16:13:14.382Z,2.35
2022-11-15T16:14:49.693Z,2.20
2022-11-15T16:16:26.060Z,2.70
2022-11-15T16:18:03.196Z,2.50
2022-11-15T16:19:40.655Z,2.45
2022-11-15T16:21:21.314Z,2.53
2022-11-15T16:22:57.690Z,2.63
2022-11-15T16:24:33.565Z,3.00
2022-11-15T16:26:20.661Z,2.70
2022-11-15T16:27:56.175Z,2.60
2022-11-15T16:29:32.470Z,2.78
2022-11-15T16:31:13.600Z,3.85
2022-11-15T16:32:50.471Z,2.83
2022-11-15T16:34:30.767Z,3.17
2022-11-15T16:36:25.605Z,3.30
2022-11-15T16:38:03.516Z,2.80
2022-11-15T16:39:38.982Z,2.90
2022-11-15T16:41:20.170Z,3.08
2022-11-15T16:42:55.942Z,3.33
2022-11-15T16:44:31.728Z,3.63
2022-11-15T16:46:14.720Z,3.95
2022-11-15T16:47:50.576Z,3.10
2022-11-15T16:49:25.747Z,3.67
2022-11-15T16:51:01.550Z,3.60
2022-11-15T16:52:37.991Z,3.67
2022-11-15T16:54:14.487Z,3.50
2022-11-15T16:55:50.344Z,3.20
2022-11-15T16:57:25.649Z,3.40
2022-11-15T16:59:02.117Z,3.50
2022-11-15T17:00:37.258Z,3.20
2022-11-15T17:02:13.479Z,3.88
2022-11-15T17:03:54.620Z,4.03
2022-11-15T17:05:35.303Z,3.70
2022-11-15T17:07:16.063Z,4.10
2022-11-15T17:08:54.886Z,4.60
2022-11-15T17:10:30.695Z,4.25
2022-11-15T17:12:08.086Z,4.60
2022-11-15T17:13:44.157Z,4.32
2022-11-15T17:15:19.600Z,3.75
2022-11-15T17:16:55.358Z,4.43
2022-11-15T17:18:31.390Z,4.22
2022-11-15T17:20:13.782Z,4.13
2022-11-15T17:21:49.710Z,5.03
2022-11-15T17:23:26.533Z,4.18
2022-11-15T17:25:05.087Z,5.75
2022-11-15T17:26:41.196Z,5.13
2022-11-15T17:28:17.016Z,4.35
2022-11-15T17:29:52.245Z,4.60
2022-11-15T17:31:33.130Z,5.50
2022-11-15T17:33:08.911Z,5.47
2022-11-15T17:34:44.287Z,5.35
2022-11-15T17:36:19.682Z,5.68
2022-11-15T17:37:55.062Z,5.90
2022-11-15T17:39:30.050Z,5.43
2022-11-15T17:41:13.688Z,5.60
2022-11-15T17:42:49.652Z,6.00
2022-11-15T17:44:25.208Z,5.72
2022-11-15T17:46:05.247Z,5.82
2022-11-15T17:47:41.307Z,6.10
2022-11-15T17:49:16.935Z,6.28
2022-11-15T17:50:59.745Z,6.18
2022-11-15T17:52:35.245Z,6.28
2022-11-15T17:54:11.484Z,6.15
2022-11-15T17:55:48.171Z,6.30
2022-11-15T17:57:24.697Z,6.22
2022-11-15T17:59:01.135Z,6.65
2022-11-15T18:00:36.826Z,6.82
2022-11-15T18:02:12.805Z,6.97
2022-11-15T18:03:54.313Z,7.18
2022-11-15T18:05:35.006Z,6.28
2022-11-15T18:07:15.571Z,7.30
2022-11-15T18:08:52.312Z,7.35
2022-11-15T18:10:27.989Z,7.35
2022-11-15T18:12:03.712Z,7.47
2022-11-15T18:13:43.687Z,8.95
2022-11-15T18:15:19.316Z,6.65
2022-11-15T18:16:54.035Z,8.05
2022-11-15T18:18:29.819Z,7.47
2022-11-15T18:20:07.092Z,7.15
2022-11-15T18:21:44.604Z,8.10
2022-11-15T18:23:19.794Z,8.52
2022-11-15T18:24:55.940Z,7.80
2022-11-15T18:26:31.792Z,7.68
2022-11-15T18:28:08.481Z,7.28
2022-11-15T18:29:45.456Z,8.65
2022-11-15T18:31:28.965Z,8.05
2022-11-15T18:33:04.227Z,8.13
2022-11-15T18:34:39.694Z,8.13
2022-11-15T18:36:19.052Z,8.88
2022-11-15T18:37:54.585Z,8.00
2022-11-15T18:39:30.293Z,7.88
2022-11-15T18:41:11.427Z,7.90
2022-11-15T18:42:46.911Z,8.52
2022-11-15T18:44:22.550Z,9.95
2022-11-15T18:46:04.216Z,9.45
2022-11-15T18:47:39.991Z,9.20
2022-11-15T18:49:16.277Z,9.63
2022-11-15T18:50:54.085Z,10.02
2022-11-15T18:52:30.364Z,10.18
2022-11-15T18:54:07.623Z,10.10
2022-11-15T18:55:43.484Z,10.57
2022-11-15T18:57:18.992Z,9.98
2022-11-15T18:58:56.126Z,9.77
2022-11-15T19:00:31.185Z,10.73
2022-11-15T19:02:11.549Z,10.63
2022-11-15T19:03:54.619Z,11.48
2022-11-15T19:05:35.557Z,11.70
2022-11-15T19:07:16.369Z,12.48
2022-11-15T19:08:54.754Z,12.13
2022-11-15T19:10:30.087Z,10.73
2022-11-15T19:12:06.938Z,12.30
2022-11-15T19:13:44.823Z,12.15
2022-11-15T19:15:20.842Z,12.43
2022-11-15T19:16:56.190Z,12.40
2022-11-15T19:18:34.258Z,11.70
2022-11-15T19:20:11.005Z,12.77
2022-11-15T19:21:47.583Z,13.32
2022-11-15T19:23:23.857Z,13.30
2022-11-15T19:24:58.634Z,11.95
2022-11-15T19:26:34.221Z,12.32
2022-11-15T19:28:09.908Z,13.40
2022-11-15T19:29:44.757Z,13.95
2022-11-15T19:31:27.018Z,13.10
2022-11-15T19:33:02.859Z,13.35
2022-11-15T19:34:38.529Z,13.13
2022-11-15T19:36:16.915Z,13.23
2022-11-15T19:37:52.658Z,14.63
2022-11-15T19:39:27.546Z,13.18
2022-11-15T19:41:05.827Z,14.52
2022-11-15T19:42:41.168Z,14.20
2022-11-15T19:44:17.856Z,13.90
2022-11-15T19:45:56.934Z,15.30
2022-11-15T19:47:36.593Z,13.45
2022-11-15T19:49:12.500Z,13.88
2022-11-15T19:50:49.724Z,14.60
2022-11-15T19:52:25.648Z,13.10
2022-11-15T19:54:03.641Z,14.77
2022-11-15T19:55:39.859Z,14.40
2022-11-15T19:57:16.023Z,14.10
2022-11-15T19:58:56.790Z,15.50
2022-11-15T20:00:33.049Z,13.90
2022-11-15T20:02:11.421Z,14.30
2022-11-15T20:03:54.859Z,15.45
2022-11-15T20:05:35.531Z,14.57
2022-11-15T20:07:18.119Z,15.30
2022-11-15T20:08:53.784Z,15.57
2022-11-15T20:10:29.723Z,14.63
2022-11-15T20:12:06.183Z,14.55
2022-11-15T20:13:44.738Z,14.70
2022-11-15T20:15:20.205Z,13.77
2022-11-15T20:16:56.300Z,13.10
2022-11-15T20:18:32.321Z,14.55
2022-11-15T20:20:10.276Z,16.08
2022-11-15T20:21:46.800Z,14.48
2022-11-15T20:23:24.206Z,15.30
2022-11-15T20:25:00.597Z,13.60
2022-11-15T20:26:36.626Z,14.70
2022-11-15T20:28:17.715Z,14.35
2022-11-15T20:29:54.036Z,14.98
2022-11-15T20:31:34.446Z,14.45
2022-11-15T20:33:10.499Z,14.10
2022-11-15T20:34:50.126Z,15.35
2022-11-15T20:36:29.602Z,13.95
2022-11-15T20:38:06.961Z,15.45
2022-11-15T20:39:43.911Z,14.10
2022-11-15T20:41:25.457Z,15.88
2022-11-15T20:43:00.926Z,15.30
2022-11-15T20:44:36.579Z,14.82
2022-11-15T20:46:13.744Z,14.80
2022-11-15T20:47:49.005Z,14.95
2022-11-15T20:49:25.312Z,15.00
2022-11-15T20:51:07.049Z,16.42
2022-11-15T20:52:43.088Z,16.42
2022-11-15T20:54:19.116Z,15.43
2022-11-15T20:56:02.368Z,16.38
2022-11-15T20:57:37.438Z,14.80
2022-11-15T20:59:13.744Z,16.88
2022-11-15T21:00:50.298Z,15.80
2022-11-15T21:02:29.518Z,15.23
2022-11-15T21:04:10.433Z,15.63
2022-11-15T21:05:53.597Z,16.98
2022-11-15T21:07:30.070Z,16.60
2022-11-15T21:09:05.977Z,17.38
2022-11-15T21:10:41.506Z,14.85
2022-11-15T21:12:19.301Z,15.85
2022-11-15T21:13:56.931Z,16.85
2022-11-15T21:15:33.793Z,16.60
2022-11-15T21:17:09.963Z,14.95
2022-11-15T21:18:45.979Z,15.48
2022-11-15T21:20:21.383Z,15.45
2022-11-15T21:21:57.242Z,15.93
2022-11-15T21:23:32.705Z,15.25
2022-11-15T21:25:09.632Z,16.23
2022-11-15T21:26:44.866Z,16.42
2022-11-15T21:28:21.289Z,15.73
2022-11-15T21:29:57.099Z,16.88
2022-11-15T21:31:38.565Z,16.83
2022-11-15T21:33:14.748Z,16.17
2022-11-15T21:34:50.944Z,15.68
2022-11-15T21:36:26.545Z,16.77
2022-11-15T21:38:02.966Z,16.77
2022-11-15T21:39:38.759Z,17.60
2022-11-15T21:41:19.638Z,15.02
2022-11-15T21:42:55.166Z,16.27
2022-11-15T21:44:31.982Z,16.85
2022-11-15T21:46:07.963Z,16.85
2022-11-15T21:47:46.384Z,16.42
2022-11-15T21:49:22.862Z,14.55
2022-11-15T21:51:01.788Z,17.05
2022-11-15T21:52:36.859Z,15.35
2022-11-15T21:54:12.298Z,14.30
2022-11-15T21:55:47.296Z,16.58
2022-11-15T21:57:23.125Z,15.93
2022-11-15T21:58:58.651Z,16.15
2022-11-15T22:00:35.676Z,15.60
2022-11-15T22:02:10.949Z,16.85
2022-11-15T22:03:52.253Z,15.02
2022-11-15T22:05:32.940Z,15.20
2022-11-15T22:07:13.500Z,15.35
2022-11-15T22:08:50.481Z,16.77
2022-11-15T22:10:26.993Z,16.15
2022-11-15T22:12:02.900Z,16.40
2022-11-15T22:13:38.126Z,15.50